Terminal Aerodrome Forecast
Issued by NWS

Home | Current Version | Previous Version | Text Only | Print | Product List | Glossary On
Versions: 1 2 3 4 5 6 7 8 9 10 11 12 13
179
FTUS45 KVEF 260520
TAFDAG
TAF
KDAG 260520Z 2606/2706 25012KT P6SM SCT250
     FM261700 VRB06KT P6SM SCT250
     FM262000 12008KT P6SM SCT200
     FM270200 25014KT P6SM SCT200=

USA.gov is the U.S. government's official web portal to all federal, state and local government web resources and services.